Campbell AAF (Fort Campbell) Air Field Fort Campbell, Hopkinsville US
ICAO: KHOP
IATA: HOP
Category: Medium
Scheduled Services: No

Elevation: 573 ft
TransAlt. 18000 ft.

Airport Communications:
APP:118.1
ATIS:125.175
CLNC DEL:138.8
DEP:118.1
GND:121.8
PMSV METRO:34.33
EAGLE CON:65.2
PTD:130.65
TWR:120.9

KHOP Zoom In..

Runways:

(A) RW 05 length 11822 ft width 200 ft
---- / hdg 45

(B) RW 18 length 4001 ft width 155 ft
---- / hdg 180

(C) RW 23 length 11822 ft width 200 ft
ILS 111.90 / hdg 225

(D) RW 36 length 4001 ft width 155 ft
---- / hdg 360

Location; KHOP
Day. 20 / Time. 02.58 Zulu
* Altimeter: 29.92
* Temperature: 26° c. 78.8°f.
* Wind from: 270° Speed 16 kn with Gusts up to 25 kn.
Dewpoint: 19° c.
Visibility: 10 Statute Miles.
Clouds: Scattered 4600 ft.
Clouds: Broken 6500 ft.
Conditions: Thunderstorm.

KHOP 200258Z AUTO 27016G25KT 10SM TS SCT046 BKN065 26/19 A2992 RMK AO2 TSB58 SLP128


Wind From 270°
Speed 16 kn.

 
 
jpsmedia.com for Web Design worldairports.se 2018   terms of use